Time;durP1;ratioP1;P1;durP2;ratioP2;P2;SDS_P1;SDS_P2;PMS_P1;PMS_P2;Temp;Humidity;BMP_temperature;BMP_pressure;BME280_temperature;BME280_humidity;BME280_pressure;Samples;Min_cycle;Max_cycle;Signal;HPM_P1;HPM_P2
2023/12/03 00:02:19;;;;;;;;;;;;;;;15.67;57.32;94356.53;5073850;28;1044;-58
2023/12/03 00:04:45;;;;;;;;;;;;;;;15.65;57.71;94354.09;5073773;28;1056;-58
2023/12/03 00:07:11;;;;;;;;;;;;;;;15.66;57.32;94344.13;5073755;28;2005;-58
2023/12/03 00:09:37;;;;;;;;;;;;;;;15.67;57.34;94343.94;5073858;28;993;-58
2023/12/03 00:12:06;;;;;;;;;;;;;;;15.66;57.12;94350.34;5073684;28;1096;-58
2023/12/03 00:14:32;;;;;;;;;;;;;;;15.66;57.00;94344.94;5073666;28;1031;-58
2023/12/03 00:16:58;;;;;;;;;;;;;;;15.67;57.62;94354.69;5073679;28;980;-58
2023/12/03 00:19:24;;;;;;;;;;;;;;;15.68;57.52;94355.53;5073351;28;1071;-57
2023/12/03 00:21:51;;;;;;;;;;;;;;;15.49;57.52;94336.50;5072585;28;1022;-57
2023/12/03 00:24:17;;;;;;;;;;;;;;;15.64;57.94;94357.81;5073616;28;978;-58
2023/12/03 00:26:43;;;;;;;;;;;;;;;15.64;57.71;94365.88;5073320;28;1987;-58
2023/12/03 00:29:10;;;;;;;;;;;;;;;15.66;57.03;94357.59;5073652;28;966;-58
2023/12/03 00:31:36;;;;;;;;;;;;;;;15.72;57.29;94359.44;5073378;28;1009;-58
2023/12/03 00:34:02;;;;;;;;;;;;;;;15.68;57.21;94369.00;5073813;28;1039;-58
2023/12/03 00:36:28;;;;;;;;;;;;;;;15.61;57.55;94372.53;5072936;28;1040;-58
2023/12/03 00:38:55;;;;;;;;;;;;;;;15.58;57.68;94374.81;5055512;28;1040;-58
2023/12/03 00:41:21;;;;;;;;;;;;;;;15.52;57.70;94375.69;5073400;28;1064;-58
2023/12/03 00:43:47;;;;;;;;;;;;;;;15.50;58.08;94356.19;5073299;28;1024;-58
2023/12/03 00:46:16;;;;;;;;;;;;;;;15.48;57.96;94369.88;5072049;28;996;-58
2023/12/03 00:48:42;;;;;;;;;;;;;;;15.50;57.99;94372.34;5073170;28;1983;-58
2023/12/03 00:51:08;;;;;;;;;;;;;;;15.50;58.50;94372.34;5073390;28;1056;-58
2023/12/03 00:53:34;;;;;;;;;;;;;;;15.50;58.14;94373.19;5073249;28;1272;-58
2023/12/03 00:56:00;;;;;;;;;;;;;;;15.52;58.49;94375.69;5073275;28;1016;-58
2023/12/03 00:58:26;;;;;;;;;;;;;;;15.54;58.43;94368.22;5072957;28;1101;-58
2023/12/03 01:00:52;;;;;;;;;;;;;;;15.57;58.76;94386.63;5073090;28;970;-57
2023/12/03 01:03:18;;;;;;;;;;;;;;;15.58;58.81;94372.13;5072934;28;1041;-58
2023/12/03 01:05:44;;;;;;;;;;;;;;;15.60;58.63;94370.06;5073032;28;1045;-58
2023/12/03 01:08:10;;;;;;;;;;;;;;;15.59;58.45;94369.22;5073041;28;1913;-58
2023/12/03 01:10:36;;;;;;;;;;;;;;;15.59;58.53;94384.53;5071981;28;1042;-58
2023/12/03 01:13:02;;;;;;;;;;;;;;;15.61;58.63;94380.63;5073075;28;1016;-58
2023/12/03 01:15:28;;;;;;;;;;;;;;;15.61;58.62;94379.78;5072810;28;1016;-58
2023/12/03 01:17:54;;;;;;;;;;;;;;;15.58;58.52;94382.91;5072881;28;1040;-57
2023/12/03 01:20:20;;;;;;;;;;;;;;;15.55;58.53;94372.53;5072722;28;1088;-58
2023/12/03 01:22:45;;;;;;;;;;;;;;;15.53;59.21;94370.06;5072815;28;1056;-58
2023/12/03 01:25:12;;;;;;;;;;;;;;;15.50;59.29;94375.03;5072760;28;926;-58
2023/12/03 01:27:38;;;;;;;;;;;;;;;15.38;59.64;94366.78;5072992;28;1918;-58
2023/12/03 01:30:04;;;;;;;;;;;;;;;15.38;59.14;94374.84;5072727;28;1029;-58
2023/12/03 01:32:30;;;;;;;;;;;;;;;15.38;59.34;94367.59;5074552;28;993;-58
2023/12/03 01:34:56;;;;;;;;;;;;;;;15.41;59.79;94372.56;5076569;28;985;-58
2023/12/03 01:37:22;;;;;;;;;;;;;;;15.47;59.38;94362.00;5076757;28;1049;-58
2023/12/03 01:39:48;;;;;;;;;;;;;;;15.50;59.29;94365.09;5076721;28;984;-58
2023/12/03 01:42:14;;;;;;;;;;;;;;;15.52;59.38;94370.28;5076603;28;982;-58
2023/12/03 01:44:40;;;;;;;;;;;;;;;15.55;59.11;94359.06;5076505;28;1228;-57
2023/12/03 01:47:06;;;;;;;;;;;;;;;15.58;59.24;94358.66;5076365;28;1993;-57
2023/12/03 01:49:32;;;;;;;;;;;;;;;15.60;59.54;94360.09;5076206;28;1104;-58
2023/12/03 01:51:58;;;;;;;;;;;;;;;15.61;59.03;94358.22;5076549;28;926;-58
2023/12/03 01:54:28;;;;;;;;;;;;;;;15.58;59.05;94355.97;5076326;28;1560;-59
2023/12/03 01:56:54;;;;;;;;;;;;;;;15.60;59.52;94351.19;5076335;28;1051;-59
2023/12/03 01:59:23;;;;;;;;;;;;;;;15.60;59.14;94343.09;5075984;28;1164;-59
2023/12/03 02:01:49;;;;;;;;;;;;;;;15.65;59.02;94343.31;5076155;28;1033;-59
2023/12/03 02:04:15;;;;;;;;;;;;;;;15.65;59.21;94347.84;5074843;28;1033;-59
2023/12/03 02:06:41;;;;;;;;;;;;;;;15.62;58.82;94346.41;5075986;28;1905;-58
2023/12/03 02:09:07;;;;;;;;;;;;;;;15.62;58.95;94349.13;5076198;28;1029;-59
2023/12/03 02:11:34;;;;;;;;;;;;;;;15.60;59.11;94352.00;5075998;28;1032;-59
2023/12/03 02:14:01;;;;;;;;;;;;;;;15.60;58.81;94345.81;5075969;28;1029;-59
2023/12/03 02:16:28;;;;;;;;;;;;;;;15.66;58.79;94354.91;5075839;28;1037;-59
2023/12/03 02:18:54;;;;;;;;;;;;;;;15.64;59.56;94351.59;5075853;28;1048;-58
2023/12/03 02:21:20;;;;;;;;;;;;;;;15.67;58.80;94360.09;5075930;28;1049;-58
2023/12/03 02:23:47;;;;;;;;;;;;;;;15.71;58.77;94357.81;5075801;28;1083;-58
2023/12/03 02:26:13;;;;;;;;;;;;;;;15.72;58.56;94359.44;5075805;28;964;-58
2023/12/03 02:28:39;;;;;;;;;;;;;;;15.74;58.63;94358.22;5075729;28;1990;-57
2023/12/03 02:31:05;;;;;;;;;;;;;;;15.77;58.67;94357.78;5075640;28;1004;-58
2023/12/03 02:33:31;;;;;;;;;;;;;;;15.79;58.50;94353.03;5075438;28;970;-59
2023/12/03 02:35:58;;;;;;;;;;;;;;;15.81;59.25;94353.63;5075796;28;997;-59
2023/12/03 02:38:24;;;;;;;;;;;;;;;15.79;58.60;94354.91;5075472;28;1033;-58
2023/12/03 02:40:50;;;;;;;;;;;;;;;15.78;58.54;94369.41;5075573;28;995;-58
2023/12/03 02:43:16;;;;;;;;;;;;;;;15.76;58.98;94364.25;5074397;28;1109;-58
2023/12/03 02:45:42;;;;;;;;;;;;;;;15.79;58.60;94371.88;5075335;28;1115;-58
2023/12/03 02:48:08;;;;;;;;;;;;;;;15.81;58.47;94380.59;5075223;28;1906;-58
2023/12/03 02:50:34;;;;;;;;;;;;;;;15.86;58.86;94381.81;5075380;28;1058;-58
2023/12/03 02:53:01;;;;;;;;;;;;;;;15.86;59.32;94389.91;5075424;28;1045;-58
2023/12/03 02:55:27;;;;;;;;;;;;;;;15.89;59.08;94387.59;5075040;28;1280;-58
2023/12/03 02:57:53;;;;;;;;;;;;;;;15.87;58.96;94389.69;5074979;28;1251;-59
2023/12/03 03:00:19;;;;;;;;;;;;;;;15.88;58.81;94393.19;5075062;28;1058;-58
2023/12/03 03:02:45;;;;;;;;;;;;;;;15.89;59.79;94384.09;5074940;28;1041;-58
2023/12/03 03:05:11;;;;;;;;;;;;;;;15.87;59.62;94378.09;5075205;28;970;-57
2023/12/03 03:07:37;;;;;;;;;;;;;;;15.88;60.12;94375.19;5074845;28;1910;-58
2023/12/03 03:10:03;;;;;;;;;;;;;;;15.84;59.63;94381.19;5073672;28;1045;-58
2023/12/03 03:12:29;;;;;;;;;;;;;;;15.83;59.21;94390.34;5074794;28;1064;-58
2023/12/03 03:14:55;;;;;;;;;;;;;;;15.83;60.11;94387.66;5074824;28;993;-58
2023/12/03 03:17:21;;;;;;;;;;;;;;;15.84;59.92;94400.06;5074591;28;985;-59
2023/12/03 03:19:47;;;;;;;;;;;;;;;15.77;59.80;94392.84;5074915;28;970;-58
2023/12/03 03:22:13;;;;;;;;;;;;;;;15.84;60.05;94394.69;5074683;28;986;-58
2023/12/03 03:24:40;;;;;;;;;;;;;;;15.86;59.25;94390.75;5074711;28;1036;-58
2023/12/03 03:27:06;;;;;;;;;;;;;;;15.93;59.46;94393.41;5074548;28;1909;-59
2023/12/03 03:29:33;;;;;;;;;;;;;;;15.90;59.28;94401.94;5074375;28;1029;-59
2023/12/03 03:31:59;;;;;;;;;;;;;;;15.91;59.21;94400.88;5074311;28;1036;-59
2023/12/03 03:34:25;;;;;;;;;;;;;;;15.89;60.09;94408.34;5074486;28;1056;-59
2023/12/03 03:36:51;;;;;;;;;;;;;;;15.93;58.97;94406.88;5074453;28;1021;-58
2023/12/03 03:39:17;;;;;;;;;;;;;;;15.81;59.42;94426.41;5074338;28;976;-59
2023/12/03 03:41:43;;;;;;;;;;;;;;;15.39;61.10;94414.22;5074327;28;1004;-58
2023/12/03 03:44:09;;;;;;;;;;;;;;;14.97;62.47;94427.09;5074161;28;1123;-59
2023/12/03 03:46:35;;;;;;;;;;;;;;;14.71;63.90;94419.78;5074006;28;1080;-58
2023/12/03 03:49:01;;;;;;;;;;;;;;;14.44;64.60;94422.41;5074249;28;1930;-59
2023/12/03 03:51:27;;;;;;;;;;;;;;;14.20;66.08;94435.31;5074119;28;1052;-58
2023/12/03 03:53:53;;;;;;;;;;;;;;;14.16;66.48;94430.56;5074036;28;1308;-58
2023/12/03 03:56:19;;;;;;;;;;;;;;;14.03;66.84;94432.16;5073668;28;916;-58
2023/12/03 03:58:45;;;;;;;;;;;;;;;14.18;66.28;94423.94;5073778;28;1096;-58
2023/12/03 04:01:11;;;;;;;;;;;;;;;14.22;66.57;94421.69;5073712;28;1053;-58
2023/12/03 04:03:37;;;;;;;;;;;;;;;14.22;65.28;94422.50;5074014;28;978;-58
2023/12/03 04:06:03;;;;;;;;;;;;;;;14.34;65.30;94432.69;5072486;28;1088;-57
2023/12/03 04:08:29;;;;;;;;;;;;;;;14.41;65.58;94438.94;5073692;28;1913;-58
2023/12/03 04:10:55;;;;;;;;;;;;;;;14.48;66.33;94439.78;5073651;28;945;-57
2023/12/03 04:13:21;;;;;;;;;;;;;;;14.55;66.53;94453.22;5073672;28;1064;-58
2023/12/03 04:15:47;;;;;;;;;;;;;;;14.54;66.41;94460.47;5073565;28;1029;-58
2023/12/03 04:18:13;;;;;;;;;;;;;;;14.34;67.03;94459.59;5073501;28;1104;-58
2023/12/03 04:20:39;;;;;;;;;;;;;;;14.31;68.89;94460.00;5073718;28;1045;-58
2023/12/03 04:23:05;;;;;;;;;;;;;;;14.30;67.33;94469.09;5073619;28;990;-58
2023/12/03 04:25:31;;;;;;;;;;;;;;;14.30;67.67;94474.47;5073570;28;960;-57
2023/12/03 04:27:57;;;;;;;;;;;;;;;14.37;67.30;94483.38;5073441;28;1970;-57
2023/12/03 04:30:23;;;;;;;;;;;;;;;14.32;68.59;94483.16;5073294;28;974;-57
2023/12/03 04:32:49;;;;;;;;;;;;;;;14.26;69.00;94487.47;5072401;28;991;-57
2023/12/03 04:35:15;;;;;;;;;;;;;;;14.12;69.01;94500.03;5073478;28;974;-57
2023/12/03 04:37:41;;;;;;;;;;;;;;;14.10;68.31;94510.16;5073266;28;1029;-57
2023/12/03 04:40:09;;;;;;;;;;;;;;;14.06;68.19;94508.91;5073462;28;989;-57
2023/12/03 04:42:35;;;;;;;;;;;;;;;13.79;69.98;94502.50;5073356;28;1173;-57
2023/12/03 04:45:01;;;;;;;;;;;;;;;13.56;70.30;94505.44;5073174;28;1041;-57
2023/12/03 04:47:28;;;;;;;;;;;;;;;13.72;70.85;94507.84;5072939;28;1918;-57
2023/12/03 04:49:54;;;;;;;;;;;;;;;13.90;68.38;94496.59;5073558;28;1053;-57
2023/12/03 04:52:20;;;;;;;;;;;;;;;13.86;68.68;94498.84;5073188;28;1028;-58
2023/12/03 04:54:46;;;;;;;;;;;;;;;13.94;69.52;94510.47;5073149;28;1253;-58
2023/12/03 04:57:12;;;;;;;;;;;;;;;13.97;69.69;94515.44;5073018;28;1096;-58
2023/12/03 04:59:38;;;;;;;;;;;;;;;13.99;68.67;94516.91;5072783;28;1108;-58
2023/12/03 05:02:04;;;;;;;;;;;;;;;14.14;68.04;94522.16;5073104;28;1032;-58
2023/12/03 05:04:30;;;;;;;;;;;;;;;14.14;68.19;94524.84;5073139;28;1052;-58
2023/12/03 05:06:56;;;;;;;;;;;;;;;14.11;69.19;94514.47;5074314;28;1931;-59
2023/12/03 05:09:22;;;;;;;;;;;;;;;14.09;69.82;94516.53;5077178;28;1038;-59
2023/12/03 05:11:49;;;;;;;;;;;;;;;13.86;69.52;94522.19;5077162;28;974;-59
2023/12/03 05:14:15;;;;;;;;;;;;;;;13.91;70.00;94514.38;5076891;28;1029;-59
2023/12/03 05:16:41;;;;;;;;;;;;;;;13.77;70.76;94531.44;5077246;28;1052;-56
2023/12/03 05:19:07;;;;;;;;;;;;;;;13.74;70.56;94519.22;5077238;28;1000;-58
2023/12/03 05:21:33;;;;;;;;;;;;;;;13.69;70.82;94527.03;5076943;28;1060;-57
2023/12/03 05:23:59;;;;;;;;;;;;;;;13.75;70.46;94528.09;5076985;28;1083;-58
2023/12/03 05:26:24;;;;;;;;;;;;;;;13.93;68.89;94522.25;5076844;28;1001;-59
2023/12/03 05:28:50;;;;;;;;;;;;;;;14.00;69.29;94517.72;5076741;28;1902;-59
2023/12/03 05:31:17;;;;;;;;;;;;;;;14.06;69.34;94523.16;5076653;28;1119;-59
2023/12/03 05:33:43;;;;;;;;;;;;;;;14.03;69.93;94533.47;5076661;28;1104;-60
2023/12/03 05:36:18;;;;;;;;;;;;;;;14.01;70.99;94533.66;5076590;28;1104;-61
2023/12/03 05:38:44;;;;;;;;;;;;;;;13.97;71.64;94542.31;5189386;22;3591;-59
2023/12/03 05:41:10;;;;;;;;;;;;;;;13.79;72.86;94548.19;5076618;28;979;-58
2023/12/03 05:43:38;;;;;;;;;;;;;;;13.79;73.01;94551.72;5075406;28;1093;-58
2023/12/03 05:46:04;;;;;;;;;;;;;;;13.80;74.76;94556.06;5076599;28;1092;-58
2023/12/03 05:48:30;;;;;;;;;;;;;;;13.73;76.36;94565.91;5076649;28;1902;-58
2023/12/03 05:50:56;;;;;;;;;;;;;;;13.62;77.48;94572.66;5076703;28;1037;-58
2023/12/03 05:53:22;;;;;;;;;;;;;;;13.54;77.96;94577.31;5076422;28;969;-58
2023/12/03 05:55:48;;;;;;;;;;;;;;;13.59;76.59;94578.41;5076311;28;1537;-59
2023/12/03 05:58:14;;;;;;;;;;;;;;;13.64;75.59;94591.28;5076191;28;1049;-57
2023/12/03 06:00:40;;;;;;;;;;;;;;;13.76;74.45;94586.19;5076451;28;966;-57
2023/12/03 06:03:06;;;;;;;;;;;;;;;13.77;76.46;94586.00;5076471;28;992;-57
2023/12/03 06:05:33;;;;;;;;;;;;;;;13.74;75.32;94585.56;5076057;28;1037;-58
2023/12/03 06:07:58;;;;;;;;;;;;;;;13.71;75.95;94584.09;5076120;28;1913;-56
2023/12/03 06:10:24;;;;;;;;;;;;;;;13.46;79.39;94575.63;5076187;28;1048;-56
2023/12/03 06:12:51;;;;;;;;;;;;;;;13.38;80.15;94576.56;5076120;28;993;-56
2023/12/03 06:15:17;;;;;;;;;;;;;;;13.48;80.43;94585.13;5076253;28;978;-56
2023/12/03 06:17:43;;;;;;;;;;;;;;;13.57;80.17;94585.00;5076175;28;1037;-56
2023/12/03 06:20:09;;;;;;;;;;;;;;;13.46;81.42;94581.81;5076128;28;982;-56
2023/12/03 06:22:35;;;;;;;;;;;;;;;13.14;83.57;94587.66;5075954;28;1046;-56
2023/12/03 06:25:01;;;;;;;;;;;;;;;12.73;87.17;94596.28;5076010;28;1000;-56
2023/12/03 06:27:28;;;;;;;;;;;;;;;12.69;83.50;94606.53;5075647;28;1999;-56
2023/12/03 06:29:54;;;;;;;;;;;;;;;12.82;81.80;94609.38;5076092;28;1008;-56
2023/12/03 06:32:20;;;;;;;;;;;;;;;12.78;80.53;94612.63;5075945;28;1044;-56
2023/12/03 06:34:46;;;;;;;;;;;;;;;12.86;81.09;94609.84;5075915;28;1039;-56
2023/12/03 06:37:12;;;;;;;;;;;;;;;13.00;80.41;94619.72;5075627;28;1080;-55
2023/12/03 06:39:38;;;;;;;;;;;;;;;13.05;80.27;94627.19;5075534;28;1200;-56
2023/12/03 06:42:05;;;;;;;;;;;;;;;13.04;80.11;94626.38;5075583;28;1056;-55
2023/12/03 06:44:31;;;;;;;;;;;;;;;13.01;80.59;94633.97;5075681;28;1061;-55
2023/12/03 06:46:57;;;;;;;;;;;;;;;12.94;80.43;94636.59;5075649;28;1917;-56
2023/12/03 06:49:24;;;;;;;;;;;;;;;12.93;80.76;94634.09;5074319;28;972;-56
2023/12/03 06:51:51;;;;;;;;;;;;;;;12.75;83.16;94639.81;5075354;28;1053;-56
2023/12/03 06:54:17;;;;;;;;;;;;;;;12.66;82.63;94642.63;5075139;28;1635;-56
2023/12/03 06:56:43;;;;;;;;;;;;;;;12.83;81.95;94643.25;5075257;28;980;-57
2023/12/03 06:59:10;;;;;;;;;;;;;;;12.74;80.34;94649.72;5075482;28;996;-57
2023/12/03 07:01:36;;;;;;;;;;;;;;;12.70;80.71;94651.94;5075208;28;1243;-56
2023/12/03 07:04:02;;;;;;;;;;;;;;;12.74;80.23;94652.41;5075379;28;1021;-55
2023/12/03 07:06:28;;;;;;;;;;;;;;;12.85;80.38;94667.22;5074744;28;1174;-56
2023/12/03 07:08:54;;;;;;;;;;;;;;;12.91;81.10;94671.00;5074938;28;1898;-57
2023/12/03 07:11:20;;;;;;;;;;;;;;;12.93;80.92;94664.41;5074861;28;1036;-57
2023/12/03 07:13:47;;;;;;;;;;;;;;;12.93;79.24;94669.78;5075192;28;1214;-57
2023/12/03 07:16:14;;;;;;;;;;;;;;;12.98;79.11;94672.75;5075019;28;1045;-57
2023/12/03 07:18:40;;;;;;;;;;;;;;;13.08;78.75;94681.31;5074952;28;971;-56
2023/12/03 07:21:07;;;;;;;;;;;;;;;13.08;79.05;94681.31;5074947;28;1074;-57
2023/12/03 07:23:33;;;;;;;;;;;;;;;13.12;79.03;94680.97;5073629;28;1048;-57
2023/12/03 07:25:59;;;;;;;;;;;;;;;13.18;79.28;94685.56;5073447;28;1069;-57
2023/12/03 07:28:25;;;;;;;;;;;;;;;13.09;80.39;94687.53;5074778;28;1993;-57
2023/12/03 07:30:51;;;;;;;;;;;;;;;13.11;80.80;94690.88;5074287;28;1019;-56
2023/12/03 07:33:17;;;;;;;;;;;;;;;13.07;80.42;94701.16;5074408;28;1115;-57
2023/12/03 07:35:43;;;;;;;;;;;;;;;13.18;79.08;94701.66;5074620;28;974;-58
2023/12/03 07:38:09;;;;;;;;;;;;;;;13.29;78.38;94701.19;5074240;28;1121;-58
2023/12/03 07:40:35;;;;;;;;;;;;;;;13.24;78.27;94715.19;5074111;28;1045;-58
2023/12/03 07:43:01;;;;;;;;;;;;;;;13.23;78.46;94710.00;5074311;28;1081;-58
2023/12/03 07:45:27;;;;;;;;;;;;;;;13.31;77.72;94725.19;5074119;28;1176;-58
2023/12/03 07:47:53;;;;;;;;;;;;;;;13.30;78.69;94721.69;5074217;28;1918;-57
2023/12/03 07:50:19;;;;;;;;;;;;;;;13.31;79.21;94722.50;5074025;28;1034;-57
2023/12/03 07:56:07;;;;;;;;;;;;;;;13.28;78.50;94724.53;5054307;28;753;-58
2023/12/03 07:58:36;;;;;;;;;;;;;;;13.32;78.98;94722.34;5054104;28;962;-58
2023/12/03 08:01:03;;;;;;;;;;;;;;;13.28;79.35;94721.00;5054087;28;1016;-58
2023/12/03 08:03:29;;;;;;;;;;;;;;;13.21;80.33;94730.84;5053896;28;1021;-57
2023/12/03 08:05:55;;;;;;;;;;;;;;;13.09;79.17;94728.63;5053841;28;983;-58
2023/12/03 08:08:21;;;;;;;;;;;;;;;13.02;80.30;94732.25;5053688;28;1906;-58
2023/12/03 08:10:47;;;;;;;;;;;;;;;13.09;80.30;94728.63;5053914;28;966;-57
2023/12/03 08:13:13;;;;;;;;;;;;;;;13.24;79.92;94727.75;5053821;28;1007;-57
2023/12/03 08:15:39;;;;;;;;;;;;;;;13.44;79.17;94725.34;5053672;28;1037;-58
2023/12/03 08:18:05;;;;;;;;;;;;;;;13.52;81.25;94722.53;5053695;28;1072;-58
2023/12/03 08:20:31;;;;;;;;;;;;;;;13.63;80.92;94730.09;5053356;28;1084;-58
2023/12/03 08:22:57;;;;;;;;;;;;;;;13.77;79.72;94720.34;5052398;28;1032;-57
2023/12/03 08:25:23;;;;;;;;;;;;;;;13.89;79.68;94719.81;5053571;28;1038;-57
2023/12/03 08:27:51;;;;;;;;;;;;;;;13.93;79.73;94721.13;5052326;28;1995;-58
2023/12/03 08:30:17;;;;;;;;;;;;;;;13.88;81.76;94718.16;5052209;28;1856;-58
2023/12/03 08:32:43;;;;;;;;;;;;;;;13.92;82.38;94720.25;5053443;28;1017;-58
2023/12/03 08:35:09;;;;;;;;;;;;;;;13.96;81.83;94723.41;5052111;28;1042;-57
2023/12/03 08:37:35;;;;;;;;;;;;;;;13.93;81.33;94731.88;5053430;28;953;-58
2023/12/03 08:40:01;;;;;;;;;;;;;;;13.98;81.23;94742.84;5053201;28;1362;-58
2023/12/03 08:42:27;;;;;;;;;;;;;;;14.05;81.11;94744.56;5052448;28;1139;-58
2023/12/03 08:44:53;;;;;;;;;;;;;;;14.08;80.74;94746.06;5052153;28;1037;-57
2023/12/03 08:47:19;;;;;;;;;;;;;;;14.13;80.68;94742.78;5053034;28;1910;-58
2023/12/03 08:49:46;;;;;;;;;;;;;;;13.92;81.88;94747.13;5051945;28;1034;-58
2023/12/03 08:52:12;;;;;;;;;;;;;;;14.02;81.30;94754.91;5053205;28;990;-58
2023/12/03 08:54:38;;;;;;;;;;;;;;;14.15;81.08;94756.88;5055448;28;1309;-57
2023/12/03 08:57:05;;;;;;;;;;;;;;;14.22;81.69;94752.38;5073305;28;1019;-57
2023/12/03 08:59:32;;;;;;;;;;;;;;;14.10;82.58;94749.41;5073091;28;1016;-58
2023/12/03 09:01:58;;;;;;;;;;;;;;;14.14;83.15;94766.78;5073164;28;970;-57
2023/12/03 09:04:24;;;;;;;;;;;;;;;14.09;82.97;94760.34;5072959;28;988;-57
2023/12/03 09:06:50;;;;;;;;;;;;;;;14.03;83.52;94760.06;5073274;28;1914;-58
2023/12/03 09:09:16;;;;;;;;;;;;;;;14.06;83.43;94761.56;5073161;28;1024;-58
2023/12/03 09:11:43;;;;;;;;;;;;;;;13.98;84.05;94767.03;5073123;28;1063;-57
2023/12/03 09:14:10;;;;;;;;;;;;;;;13.95;83.51;94776.34;5073128;28;1086;-58
2023/12/03 09:16:37;;;;;;;;;;;;;;;13.76;84.60;94777.78;5072818;28;1120;-57
2023/12/03 09:19:03;;;;;;;;;;;;;;;13.70;85.41;94783.91;5073008;28;1030;-58
2023/12/03 09:21:29;;;;;;;;;;;;;;;13.69;85.26;94781.41;5073218;28;1071;-58
2023/12/03 09:23:56;;;;;;;;;;;;;;;13.61;84.72;94785.88;5055258;28;1609;-57
2023/12/03 09:26:22;;;;;;;;;;;;;;;13.48;85.77;94791.91;5073066;28;962;-60
2023/12/03 09:28:48;;;;;;;;;;;;;;;13.34;85.10;94790.09;5072970;28;1910;-58
2023/12/03 09:31:14;;;;;;;;;;;;;;;13.28;86.09;94799.69;5072904;28;1115;-57
2023/12/03 09:33:40;;;;;;;;;;;;;;;13.30;86.85;94799.56;5072904;28;981;-58
2023/12/03 09:36:07;;;;;;;;;;;;;;;13.18;85.96;94798.31;5055454;28;1038;-58
2023/12/03 09:38:34;;;;;;;;;;;;;;;13.22;87.25;94804.97;5072633;28;1334;-58
2023/12/03 09:41:04;;;;;;;;;;;;;;;13.20;85.58;94798.94;5073066;28;1005;-58
2023/12/03 09:43:30;;;;;;;;;;;;;;;13.20;87.36;94796.25;5072747;28;1022;-60
2023/12/03 09:45:59;;;;;;;;;;;;;;;13.22;88.34;94792.41;5055177;28;1039;-59
2023/12/03 09:48:29;;;;;;;;;;;;;;;13.07;88.14;94794.22;5072663;28;1910;-59
2023/12/03 09:50:58;;;;;;;;;;;;;;;13.04;88.94;94803.50;5072991;28;1011;-59
2023/12/03 09:53:25;;;;;;;;;;;;;;;13.21;88.44;94806.81;5074343;28;1095;-59
2023/12/03 09:55:53;;;;;;;;;;;;;;;13.23;89.11;94818.22;5076392;28;1595;-58
2023/12/03 09:58:20;;;;;;;;;;;;;;;13.29;87.36;94817.47;5075142;28;2863;-59
2023/12/03 10:00:48;;;;;;;;;;;;;;;13.11;88.51;94808.13;5076307;28;1048;-58
2023/12/03 10:03:14;;;;;;;;;;;;;;;12.76;91.48;94819.38;5076287;28;1052;-58
2023/12/03 10:05:40;;;;;;;;;;;;;;;12.72;92.05;94818.06;5076008;28;1029;-58
2023/12/03 10:08:06;;;;;;;;;;;;;;;12.60;93.08;94823.06;5076287;28;1905;-58
2023/12/03 10:10:34;;;;;;;;;;;;;;;12.65;92.97;94826.03;5076048;28;1091;-59
2023/12/03 10:13:01;;;;;;;;;;;;;;;12.71;92.53;94835.22;5076149;28;1015;-59
2023/12/03 10:15:27;;;;;;;;;;;;;;;12.78;90.89;94832.59;5075922;28;1088;-58
2023/12/03 10:17:53;;;;;;;;;;;;;;;12.45;93.99;94822.19;5076264;28;980;-58
2023/12/03 10:20:22;;;;;;;;;;;;;;;12.32;95.79;94825.47;5075974;28;1104;-58
2023/12/03 10:22:49;;;;;;;;;;;;;;;12.40;95.95;94824.56;5076146;28;1050;-59
2023/12/03 10:25:31;;;;;;;;;;;;;;;12.52;95.00;94824.97;5075945;28;1097;-57
2023/12/03 10:27:58;;;;;;;;;;;;;;;12.42;97.27;94830.59;5075664;28;1914;-56
2023/12/03 10:30:24;;;;;;;;;;;;;;;12.43;95.14;94825.03;5075915;28;996;-57
2023/12/03 10:32:50;;;;;;;;;;;;;;;12.66;94.30;94822.31;5075872;28;1012;-57
2023/12/03 10:35:20;;;;;;;;;;;;;;;12.83;92.65;94827.53;5075626;28;1108;-57
2023/12/03 10:37:47;;;;;;;;;;;;;;;12.89;92.48;94834.84;5075646;28;1356;-58
2023/12/03 10:40:13;;;;;;;;;;;;;;;12.62;95.11;94826.38;5075604;28;1121;-57
2023/12/03 10:42:39;;;;;;;;;;;;;;;12.62;95.63;94828.25;5075607;28;971;-58
2023/12/03 10:45:07;;;;;;;;;;;;;;;12.71;94.97;94832.53;5075396;28;1035;-58
2023/12/03 10:47:33;;;;;;;;;;;;;;;12.76;93.90;94827.41;5075400;28;1906;-58
2023/12/03 10:50:00;;;;;;;;;;;;;;;12.75;94.05;94824.91;5070508;28;1465;-58
2023/12/03 10:52:28;;;;;;;;;;;;;;;12.73;95.01;94832.31;5074966;28;1096;-59
2023/12/03 10:54:54;;;;;;;;;;;;;;;12.68;96.02;94831.00;5075235;28;1546;-59
2023/12/03 10:57:20;;;;;;;;;;;;;;;12.66;95.38;94827.69;5075148;28;1044;-59
2023/12/03 10:59:50;;;;;;;;;;;;;;;12.70;96.16;94834.34;5072735;28;2484;-60
2023/12/03 11:02:18;;;;;;;;;;;;;;;12.80;95.94;94828.72;5073659;28;1076;-58
2023/12/03 11:04:51;;;;;;;;;;;;;;;12.90;94.34;94836.53;5074332;28;977;-57
2023/12/03 11:07:18;;;;;;;;;;;;;;;13.02;93.95;94832.38;5074998;28;1983;-58
2023/12/03 11:09:45;;;;;;;;;;;;;;;12.95;93.21;94834.09;5075020;28;1048;-62
2023/12/03 11:12:11;;;;;;;;;;;;;;;12.95;93.92;94852.06;5075112;28;1191;-62
2023/12/03 11:14:38;;;;;;;;;;;;;;;12.94;95.03;94848.56;5074780;28;1056;-62
2023/12/03 11:17:25;;;;;;;;;;;;;;;12.97;95.12;94841.97;5075130;28;1028;-61
2023/12/03 11:19:53;;;;;;;;;;;;;;;12.94;95.60;94840.50;5075404;28;1020;-62
2023/12/03 11:22:42;;;;;;;;;;;;;;;13.02;95.05;94843.09;5074628;28;1144;-61
2023/12/03 11:25:10;;;;;;;;;;;;;;;13.13;93.62;94847.19;5075045;28;1469;-63
2023/12/03 11:27:39;;;;;;;;;;;;;;;13.14;94.33;94845.34;5075018;28;1905;-63
2023/12/03 11:30:05;;;;;;;;;;;;;;;13.20;93.46;94837.38;5073687;28;952;-61
2023/12/03 11:32:32;;;;;;;;;;;;;;;13.23;92.41;94830.81;5073969;28;1063;-61
2023/12/03 11:35:07;;;;;;;;;;;;;;;13.39;90.60;94838.72;5073610;28;1036;-58
2023/12/03 11:37:33;;;;;;;;;;;;;;;13.42;91.04;94845.56;5074331;28;1048;-61
2023/12/03 11:40:07;;;;;;;;;;;;;;;13.46;90.00;94844.16;5074296;28;1219;-60
2023/12/03 11:42:33;;;;;;;;;;;;;;;13.50;88.81;94863.41;5074292;28;1024;-60
2023/12/03 11:45:18;;;;;;;;;;;;;;;13.48;88.10;94863.59;5073268;28;1053;-60
2023/12/03 11:47:45;;;;;;;;;;;;;;;13.26;89.50;94866.16;5074429;28;2005;-60
2023/12/03 11:50:13;;;;;;;;;;;;;;;13.18;90.39;94868.09;5073966;28;1005;-60
2023/12/03 11:52:39;;;;;;;;;;;;;;;13.19;90.46;94870.59;5070264;28;1468;-60
2023/12/03 11:55:05;;;;;;;;;;;;;;;13.14;89.42;94874.84;5072831;28;1244;-60
2023/12/03 11:57:38;;;;;;;;;;;;;;;13.03;91.21;94876.97;5074313;28;975;-61
2023/12/03 12:00:06;;;;;;;;;;;;;;;12.98;91.40;94870.50;5074015;28;1096;-62
2023/12/03 12:02:32;;;;;;;;;;;;;;;12.92;92.21;94877.44;5089507;28;956;-60
2023/12/03 12:05:02;;;;;;;;;;;;;;;13.01;94.28;94862.91;5073802;28;1027;-59
2023/12/03 12:07:28;;;;;;;;;;;;;;;13.06;93.67;94876.59;5071696;28;1909;-59
2023/12/03 12:09:54;;;;;;;;;;;;;;;13.08;94.49;94887.16;5072226;28;1088;-59
2023/12/03 12:12:20;;;;;;;;;;;;;;;13.13;92.48;94883.91;5070848;28;1080;-59
2023/12/03 12:14:48;;;;;;;;;;;;;;;12.94;93.88;94896.00;5072866;28;937;-60
2023/12/03 12:17:14;;;;;;;;;;;;;;;12.77;94.65;94898.84;5071778;28;969;-61
2023/12/03 12:19:50;;;;;;;;;;;;;;;12.53;94.03;94901.72;5069446;28;1532;-57
2023/12/03 12:22:16;;;;;;;;;;;;;;;12.24;92.85;94900.59;5073320;28;1032;-59
2023/12/03 12:24:45;;;;;;;;;;;;;;;12.15;94.44;94899.78;5073334;28;1040;-63
2023/12/03 12:27:11;;;;;;;;;;;;;;;12.01;92.83;94903.22;5072485;28;1910;-61
2023/12/03 12:29:37;;;;;;;;;;;;;;;11.95;95.17;94903.94;5073003;28;1067;-58
2023/12/03 12:32:04;;;;;;;;;;;;;;;11.69;94.42;94913.06;5073374;28;1001;-59
2023/12/03 12:34:30;;;;;;;;;;;;;;;11.66;95.70;94910.72;5073379;28;1060;-60
2023/12/03 12:37:05;;;;;;;;;;;;;;;11.68;95.22;94916.75;5073125;28;969;-60
2023/12/03 12:39:32;;;;;;;;;;;;;;;11.69;94.45;94908.53;5072777;28;1532;-59
2023/12/03 12:41:58;;;;;;;;;;;;;;;11.53;96.03;94917.47;5073281;28;1040;-58
2023/12/03 12:44:40;;;;;;;;;;;;;;;11.52;96.04;94931.03;5073412;28;1043;-58
2023/12/03 12:47:06;;;;;;;;;;;;;;;11.39;95.83;94923.53;5072768;28;1993;-58
2023/12/03 12:49:33;;;;;;;;;;;;;;;11.12;98.13;94922.94;5072663;28;1007;-60
2023/12/03 12:52:17;;;;;;;;;;;;;;;11.02;95.49;94924.97;5073334;28;989;-61
2023/12/03 12:54:44;;;;;;;;;;;;;;;10.96;94.83;94933.63;5073278;28;1125;-59
2023/12/03 12:57:11;;;;;;;;;;;;;;;10.96;95.12;94938.16;5073181;28;1060;-61
2023/12/03 12:59:37;;;;;;;;;;;;;;;10.81;96.82;94952.19;5072782;28;1057;-63
2023/12/03 13:02:04;;;;;;;;;;;;;;;10.68;96.60;94950.06;5073063;28;1000;-62